Time;durP1;ratioP1;P1;durP2;ratioP2;P2;SDS_P1;SDS_P2;PMS_P1;PMS_P2;Temp;Humidity;BMP_temperature;BMP_pressure;BME280_temperature;BME280_humidity;BME280_pressure;Samples;Min_cycle;Max_cycle;Signal;HPM_P1;HPM_P2
2022/03/22 00:00:50;;;;;;;47.00;38.13;;;5.90;99.90;;;;;;5070306;28;20143;-72
2022/03/22 00:03:17;;;;;;;42.85;36.20;;;5.80;99.90;;;;;;5070344;28;20046;-72
2022/03/22 00:05:44;;;;;;;43.88;35.55;;;5.80;99.90;;;;;;5070808;28;20690;-72
2022/03/22 00:08:11;;;;;;;46.10;37.70;;;5.80;99.90;;;;;;5086915;28;20122;-73
2022/03/22 00:10:38;;;;;;;48.30;39.47;;;5.80;99.90;;;;;;5087626;28;20042;-72
2022/03/22 00:13:07;;;;;;;48.78;38.25;;;5.80;99.90;;;;;;5086337;28;20047;-73
2022/03/22 00:15:34;;;;;;;47.25;38.88;;;5.80;99.90;;;;;;5087127;28;20054;-73
2022/03/22 00:18:00;;;;;;;44.03;36.20;;;5.90;99.90;;;;;;5069472;28;20058;-73
2022/03/22 00:20:27;;;;;;;55.92;43.03;;;5.90;99.90;;;;;;5070681;28;20071;-73
2022/03/22 00:22:54;;;;;;;48.22;40.80;;;5.90;99.90;;;;;;5053489;28;20109;-72
2022/03/22 00:25:20;;;;;;;49.78;41.42;;;5.90;99.90;;;;;;5065509;28;20131;-73
2022/03/22 00:27:51;;;;;;;49.63;40.33;;;6.00;99.90;;;;;;5070017;28;20062;-72
2022/03/22 00:30:23;;;;;;;47.45;40.50;;;6.00;99.90;;;;;;5086592;28;20417;-72
2022/03/22 00:32:54;;;;;;;47.40;39.75;;;6.10;99.90;;;;;;5086136;28;20100;-73
2022/03/22 00:35:36;;;;;;;50.38;41.08;;;6.10;99.90;;;;;;5086635;28;20501;-72
2022/03/22 00:38:08;;;;;;;47.50;40.03;;;6.10;99.90;;;;;;5085792;28;20086;-73
2022/03/22 00:40:35;;;;;;;45.15;38.70;;;6.10;99.90;;;;;;5120631;28;20039;-73
2022/03/22 00:43:01;;;;;;;42.53;36.22;;;6.10;99.90;;;;;;5085733;28;20063;-72
2022/03/22 00:45:32;;;;;;;51.25;44.35;;;6.10;99.90;;;;;;5069429;28;20401;-72
2022/03/22 00:47:59;;;;;;;52.80;41.78;;;6.00;99.90;;;;;;5086219;28;20100;-73
2022/03/22 00:50:30;;;;;;;49.38;40.42;;;6.00;99.90;;;;;;5086222;28;20048;-73
2022/03/22 00:52:57;;;;;;;51.72;41.80;;;6.00;99.90;;;;;;5085139;28;20060;-72
2022/03/22 00:55:24;;;;;;;48.33;40.75;;;6.00;99.90;;;;;;5068366;28;20123;-73
2022/03/22 00:57:51;;;;;;;48.85;41.65;;;6.10;99.90;;;;;;5069883;28;20040;-69
2022/03/22 01:00:18;;;;;;;50.20;42.50;;;6.10;99.90;;;;;;5085273;28;20077;-71
2022/03/22 01:02:49;;;;;;;50.55;40.92;;;6.10;99.90;;;;;;5086254;28;20063;-69
2022/03/22 01:05:18;;;;;;;48.83;41.03;;;6.20;99.90;;;;;;5085630;28;20054;-68
2022/03/22 01:07:46;;;;;;;51.05;43.90;;;6.20;99.90;;;;;;5086537;28;20090;-68
2022/03/22 01:10:12;;;;;;;48.25;40.63;;;6.20;99.90;;;;;;5114252;28;20035;-69
2022/03/22 01:12:41;;;;;;;49.70;42.20;;;6.20;99.90;;;;;;5069068;28;20051;-69
2022/03/22 01:15:22;;;;;;;53.10;42.75;;;6.20;99.90;;;;;;5068686;28;20112;-69
2022/03/22 01:17:52;;;;;;;53.85;42.88;;;6.20;99.90;;;;;;5069566;28;20069;-68
2022/03/22 01:20:22;;;;;;;49.28;42.08;;;6.20;99.90;;;;;;5085714;28;20095;-69
2022/03/22 01:22:49;;;;;;;49.05;41.38;;;6.30;99.90;;;;;;5052755;28;20039;-68
2022/03/22 01:25:17;;;;;;;53.00;42.45;;;6.30;99.90;;;;;;5067208;28;20047;-68
2022/03/22 01:27:46;;;;;;;48.03;39.97;;;6.30;99.90;;;;;;5087407;27;20486;-68
2022/03/22 01:30:13;;;;;;;47.65;41.53;;;6.30;99.90;;;;;;5072452;28;20074;-69
2022/03/22 01:32:39;;;;;;;46.30;39.33;;;6.30;99.90;;;;;;5054324;28;20051;-69
2022/03/22 01:35:09;;;;;;;45.50;37.47;;;6.40;99.90;;;;;;5089589;28;20043;-69
2022/03/22 01:37:35;;;;;;;54.45;44.35;;;6.40;99.90;;;;;;5052050;28;20059;-69
2022/03/22 01:40:02;;;;;;;47.25;39.03;;;6.40;99.90;;;;;;5068497;28;20079;-69
2022/03/22 01:42:27;;;;;;;47.83;41.58;;;6.30;99.90;;;;;;5118957;27;20586;-69
2022/03/22 01:44:53;;;;;;;49.88;40.80;;;6.30;99.90;;;;;;5073005;28;20039;-69
2022/03/22 01:47:23;;;;;;;51.42;40.28;;;6.30;99.90;;;;;;5071467;28;20579;-69
2022/03/22 01:49:50;;;;;;;47.85;39.38;;;6.40;99.90;;;;;;5066553;28;20047;-69
2022/03/22 01:52:23;;;;;;;47.30;38.97;;;6.40;99.90;;;;;;5087140;28;20055;-69
2022/03/22 01:54:51;;;;;;;44.03;38.88;;;6.40;99.90;;;;;;5068645;28;20625;-69
2022/03/22 01:57:18;;;;;;;49.40;40.42;;;6.40;99.90;;;;;;5123529;27;20764;-69
2022/03/22 01:59:45;;;;;;;49.80;40.30;;;6.30;99.90;;;;;;5073474;28;20683;-69
2022/03/22 02:07:45;;;;;;;42.08;36.05;;;6.20;99.90;;;;;;5121097;27;20052;-69
2022/03/22 02:10:11;;;;;;;45.10;38.42;;;6.10;99.90;;;;;;5088486;28;20140;-69
2022/03/22 02:12:37;;;;;;;42.00;35.50;;;6.00;99.90;;;;;;5071615;28;20039;-69
2022/03/22 02:15:03;;;;;;;44.05;38.00;;;6.00;99.90;;;;;;5067045;28;20104;-69
2022/03/22 02:17:29;;;;;;;41.85;37.28;;;5.90;99.90;;;;;;5088271;28;20107;-69
2022/03/22 02:19:55;;;;;;;46.08;40.25;;;5.80;99.90;;;;;;5071468;28;20051;-69
2022/03/22 02:22:35;;;;;;;42.92;36.95;;;5.80;99.90;;;;;;5087785;28;20439;-69
2022/03/22 02:25:03;;;;;;;44.08;37.75;;;5.80;99.90;;;;;;5086067;28;20101;-69
2022/03/22 02:27:30;;;;;;;42.72;37.50;;;5.70;99.90;;;;;;5071411;28;20130;-70
2022/03/22 02:29:59;;;;;;;48.63;40.03;;;5.70;99.90;;;;;;5087932;28;20134;-69
2022/03/22 02:32:28;;;;;;;43.72;35.90;;;5.70;99.90;;;;;;5086126;28;20039;-68
2022/03/22 02:34:54;;;;;;;45.00;37.33;;;5.70;99.90;;;;;;5071339;28;20059;-68
2022/03/22 02:37:20;;;;;;;46.92;38.75;;;5.60;99.90;;;;;;5086949;28;20167;-68
2022/03/22 02:39:45;;;;;;;40.55;36.13;;;5.40;99.90;;;;;;5087412;28;20059;-68
2022/03/22 02:42:11;;;;;;;41.05;34.95;;;5.30;99.90;;;;;;5070823;28;20562;-70
2022/03/22 02:44:38;;;;;;;43.65;37.72;;;5.20;99.90;;;;;;5070986;28;20432;-68
2022/03/22 02:47:04;;;;;;;45.15;37.28;;;5.10;99.90;;;;;;5071280;28;20043;-68
2022/03/22 02:49:30;;;;;;;47.33;39.55;;;5.00;99.90;;;;;;5088147;28;20044;-68
2022/03/22 02:51:56;;;;;;;46.78;38.90;;;5.00;99.90;;;;;;5087151;28;20040;-68
2022/03/22 02:54:22;;;;;;;47.47;39.58;;;5.10;99.90;;;;;;5122158;27;20544;-68
2022/03/22 02:56:48;;;;;;;44.13;37.65;;;5.10;99.90;;;;;;5058370;28;20075;-68
2022/03/22 02:59:14;;;;;;;48.47;40.58;;;5.10;99.90;;;;;;5070363;28;20048;-68
2022/03/22 03:01:39;;;;;;;48.70;39.85;;;5.10;99.90;;;;;;5066776;28;20043;-70
2022/03/22 03:04:05;;;;;;;48.92;41.08;;;5.20;99.90;;;;;;5070361;28;20047;-69
2022/03/22 03:06:31;;;;;;;50.08;43.63;;;5.20;99.90;;;;;;5104866;28;20501;-70
2022/03/22 03:08:59;;;;;;;48.08;41.42;;;5.30;99.90;;;;;;5087546;28;20051;-68
2022/03/22 03:11:26;;;;;;;46.63;41.58;;;5.30;99.90;;;;;;5087555;28;20040;-68
2022/03/22 03:16:39;;;;;;;47.97;41.20;;;5.40;99.90;;;;;;5087655;28;20052;-68
2022/03/22 03:19:06;;;;;;;49.15;42.03;;;5.50;99.90;;;;;;5087815;28;20094;-68
2022/03/22 03:21:32;;;;;;;44.90;40.10;;;5.50;99.90;;;;;;5071411;28;20113;-68
2022/03/22 03:23:58;;;;;;;51.33;41.88;;;5.50;99.90;;;;;;5070507;28;20108;-68
2022/03/22 03:26:24;;;;;;;49.40;41.05;;;5.60;99.90;;;;;;5069871;28;20039;-68
2022/03/22 03:28:49;;;;;;;49.05;43.65;;;5.60;99.90;;;;;;5105661;27;20101;-68
2022/03/22 03:31:15;;;;;;;51.13;43.15;;;5.70;99.90;;;;;;5087710;28;20042;-68
2022/03/22 03:33:41;;;;;;;52.88;43.50;;;5.80;99.90;;;;;;5087981;28;20039;-68
2022/03/22 03:36:07;;;;;;;50.03;43.65;;;5.90;99.90;;;;;;5061425;28;20040;-68
2022/03/22 03:38:41;;;;;;;51.53;42.08;;;6.10;99.90;;;;;;5087877;28;20035;-68
2022/03/22 03:43:53;;;;;;;51.55;43.97;;;6.40;99.90;;;;;;5072913;28;20047;-68
2022/03/22 03:49:04;;;;;;;49.42;43.00;;;6.50;99.90;;;;;;5106479;27;20079;-68
2022/03/22 03:51:30;;;;;;;53.75;43.00;;;6.60;99.90;;;;;;5068191;28;20219;-68
2022/03/22 03:53:57;;;;;;;51.42;43.15;;;6.60;99.90;;;;;;5069429;28;20521;-68
2022/03/22 03:56:23;;;;;;;51.05;43.42;;;6.60;99.90;;;;;;5069043;28;20039;-68
2022/03/22 03:58:49;;;;;;;51.17;43.00;;;6.70;99.90;;;;;;5037272;28;20081;-70
2022/03/22 04:01:14;;;;;;;49.75;42.78;;;6.70;99.90;;;;;;5068656;28;20051;-69
2022/03/22 04:03:40;;;;;;;48.03;42.08;;;6.60;99.90;;;;;;5086980;28;20047;-69
2022/03/22 04:06:06;;;;;;;49.67;42.92;;;6.70;99.90;;;;;;5086390;28;20122;-69
2022/03/22 04:08:32;;;;;;;49.38;43.05;;;6.70;99.90;;;;;;5120405;27;20044;-69
2022/03/22 04:10:58;;;;;;;48.25;41.92;;;6.70;99.90;;;;;;5086326;28;20047;-69
2022/03/22 04:13:24;;;;;;;51.20;43.88;;;6.70;99.90;;;;;;5086701;28;20093;-69
2022/03/22 04:15:50;;;;;;;50.63;44.88;;;6.60;99.90;;;;;;5065690;28;20135;-69
2022/03/22 04:18:16;;;;;;;51.95;42.40;;;6.60;99.90;;;;;;5082941;28;20720;-69
2022/03/22 04:20:42;;;;;;;48.00;42.67;;;6.60;99.90;;;;;;5083315;28;20185;-69
2022/03/22 04:23:08;;;;;;;49.05;42.65;;;6.60;99.90;;;;;;5031059;28;20585;-69
2022/03/22 04:25:34;;;;;;;48.25;42.50;;;6.60;99.90;;;;;;5081951;28;20459;-69
2022/03/22 04:33:29;;;;;;;49.63;43.60;;;6.50;99.90;;;;;;5082890;28;20048;-69
2022/03/22 04:35:58;;;;;;;55.63;44.92;;;6.50;99.90;;;;;;5064776;28;20476;-68
2022/03/22 04:38:25;;;;;;;50.78;43.85;;;6.50;99.90;;;;;;5083161;28;20089;-69
2022/03/22 04:40:54;;;;;;;48.10;42.85;;;6.50;99.90;;;;;;5065988;28;20493;-68
2022/03/22 04:43:20;;;;;;;51.33;42.13;;;6.40;99.90;;;;;;5066154;28;20048;-68
2022/03/22 04:45:46;;;;;;;48.83;43.50;;;6.40;99.90;;;;;;5082542;28;20221;-68
2022/03/22 04:48:12;;;;;;;51.08;43.03;;;6.40;99.90;;;;;;5065847;28;20046;-68
2022/03/22 04:50:38;;;;;;;52.53;44.15;;;6.40;99.90;;;;;;5082828;28;20487;-68
2022/03/22 04:58:34;;;;;;;51.40;45.00;;;6.30;99.90;;;;;;5083167;28;20120;-71
2022/03/22 05:01:00;;;;;;;50.15;42.78;;;6.30;99.90;;;;;;5081346;28;20410;-70
2022/03/22 05:03:26;;;;;;;52.47;45.17;;;6.30;99.90;;;;;;5085705;28;20040;-68
2022/03/22 05:08:36;;;;;;;51.60;43.35;;;6.40;99.90;;;;;;5087080;28;20063;-68
2022/03/22 05:11:02;;;;;;;50.90;43.40;;;6.40;99.90;;;;;;5067465;28;20521;-68
2022/03/22 05:13:27;;;;;;;49.25;43.00;;;6.40;99.90;;;;;;5086657;28;20047;-68
2022/03/22 05:15:53;;;;;;;49.08;43.65;;;6.40;99.90;;;;;;5069183;28;20052;-68
2022/03/22 05:18:23;;;;;;;52.33;43.28;;;6.40;99.90;;;;;;5086190;28;20087;-68
2022/03/22 05:20:48;;;;;;;50.28;42.70;;;6.30;99.90;;;;;;5070063;28;20087;-68
2022/03/22 05:23:16;;;;;;;50.78;45.15;;;6.40;99.90;;;;;;5085907;28;20106;-68
2022/03/22 05:25:43;;;;;;;51.10;45.53;;;6.30;99.90;;;;;;5084863;28;20436;-68
2022/03/22 05:28:09;;;;;;;51.50;43.85;;;6.30;99.90;;;;;;5086206;28;20056;-68
2022/03/22 05:30:35;;;;;;;54.28;43.22;;;6.30;99.90;;;;;;5069535;28;20241;-68
2022/03/22 05:33:03;;;;;;;49.63;43.92;;;6.30;99.90;;;;;;5069595;28;20052;-68
2022/03/22 05:35:29;;;;;;;50.03;44.22;;;6.30;99.90;;;;;;5068250;28;20105;-68
2022/03/22 05:37:55;;;;;;;50.58;44.95;;;6.30;99.90;;;;;;5069632;28;20584;-68
2022/03/22 05:40:21;;;;;;;52.72;42.70;;;6.30;99.90;;;;;;5085829;28;20044;-67
2022/03/22 05:42:47;;;;;;;50.05;44.63;;;6.30;99.90;;;;;;5052378;28;20050;-68
2022/03/22 05:45:13;;;;;;;48.47;43.08;;;6.30;99.90;;;;;;5068010;28;20104;-68
2022/03/22 05:47:39;;;;;;;50.78;45.22;;;6.30;99.90;;;;;;5068594;28;20090;-68
2022/03/22 05:50:06;;;;;;;51.28;43.63;;;6.20;99.90;;;;;;5068997;28;20447;-68
2022/03/22 05:52:32;;;;;;;49.90;43.65;;;6.20;99.90;;;;;;5066572;28;20122;-68
2022/03/22 05:54:58;;;;;;;49.17;43.63;;;6.20;99.90;;;;;;5078814;28;20115;-69
2022/03/22 05:57:24;;;;;;;50.72;45.20;;;6.10;99.90;;;;;;5068343;28;20071;-68
2022/03/22 05:59:50;;;;;;;51.17;44.90;;;6.20;99.90;;;;;;5085863;28;20106;-68
2022/03/22 06:02:16;;;;;;;50.03;43.20;;;6.20;99.90;;;;;;5049518;28;20394;-69
2022/03/22 06:04:41;;;;;;;48.03;42.83;;;6.20;99.90;;;;;;5085609;28;20044;-69
2022/03/22 06:07:08;;;;;;;50.97;42.33;;;6.20;99.90;;;;;;5068450;28;20139;-69
2022/03/22 06:09:34;;;;;;;49.78;43.88;;;6.20;99.90;;;;;;5068873;28;20040;-74
2022/03/22 06:11:59;;;;;;;48.72;43.30;;;6.20;99.90;;;;;;5068096;28;20056;-73
2022/03/22 06:14:25;;;;;;;53.13;44.03;;;6.20;99.90;;;;;;5067661;28;20044;-74
2022/03/22 06:16:51;;;;;;;49.70;43.22;;;6.20;99.90;;;;;;5050492;28;20052;-73
2022/03/22 06:19:17;;;;;;;49.92;41.67;;;6.20;99.90;;;;;;5068116;28;20055;-73
2022/03/22 06:21:43;;;;;;;49.05;42.65;;;6.30;99.90;;;;;;5067974;28;20037;-74
2022/03/22 06:24:09;;;;;;;53.22;43.28;;;6.30;99.90;;;;;;5084730;28;20454;-73
2022/03/22 06:26:35;;;;;;;49.55;42.92;;;6.30;99.90;;;;;;5068008;28;20735;-74
2022/03/22 06:29:01;;;;;;;50.10;43.53;;;6.40;99.90;;;;;;5068562;28;20457;-73
2022/03/22 06:31:33;;;;;;;51.33;42.90;;;6.40;99.90;;;;;;5085673;28;20602;-73
2022/03/22 06:34:00;;;;;;;51.67;43.78;;;6.50;99.90;;;;;;5085510;28;20052;-73
2022/03/22 06:36:28;;;;;;;51.03;43.28;;;6.50;99.90;;;;;;5067599;28;20082;-73
2022/03/22 06:38:53;;;;;;;50.55;44.42;;;6.60;99.90;;;;;;5067096;28;20135;-73
2022/03/22 06:41:20;;;;;;;48.33;43.13;;;6.60;99.90;;;;;;5066087;28;20046;-73
2022/03/22 06:43:46;;;;;;;48.65;41.63;;;6.70;99.90;;;;;;5067385;28;20066;-72
2022/03/22 06:46:12;;;;;;;51.35;43.15;;;6.70;99.90;;;;;;5084875;28;20044;-72
2022/03/22 06:48:38;;;;;;;50.67;43.95;;;6.80;99.90;;;;;;5061407;28;20094;-73
2022/03/22 06:51:04;;;;;;;50.38;42.90;;;6.80;99.90;;;;;;5065602;28;20406;-73
2022/03/22 06:53:29;;;;;;;49.80;43.40;;;6.90;99.90;;;;;;5064460;28;20093;-72
2022/03/22 06:55:58;;;;;;;47.67;41.80;;;6.90;99.90;;;;;;5083259;28;20051;-73
2022/03/22 06:58:25;;;;;;;48.92;42.83;;;7.00;99.90;;;;;;5049995;28;20036;-72
2022/03/22 07:00:55;;;;;;;50.38;42.33;;;7.10;99.90;;;;;;5043615;28;20422;-72
2022/03/22 07:03:21;;;;;;;48.67;42.28;;;7.10;99.90;;;;;;5047462;28;20052;-73
2022/03/22 07:05:47;;;;;;;47.47;40.55;;;7.20;99.90;;;;;;5077099;28;20046;-73
2022/03/22 07:08:14;;;;;;;48.15;41.75;;;7.20;99.90;;;;;;5051251;28;20487;-68
2022/03/22 07:10:39;;;;;;;50.13;40.60;;;7.30;99.90;;;;;;5074748;28;20039;-69
2022/03/22 07:13:10;;;;;;;46.67;41.00;;;7.40;99.90;;;;;;5055781;28;20040;-69
2022/03/22 07:15:37;;;;;;;46.63;41.13;;;7.50;99.90;;;;;;5076513;28;20052;-68
2022/03/22 07:18:05;;;;;;;46.80;39.15;;;7.60;99.90;;;;;;5053546;28;20079;-69
2022/03/22 07:20:31;;;;;;;44.20;38.85;;;7.70;99.90;;;;;;5054782;28;20052;-69
2022/03/22 07:22:57;;;;;;;46.42;39.42;;;7.90;99.90;;;;;;5062551;28;20184;-69
2022/03/22 07:25:23;;;;;;;45.20;39.17;;;8.00;99.90;;;;;;5049186;28;20122;-69
2022/03/22 07:27:50;;;;;;;44.75;37.47;;;8.10;99.90;;;;;;5076971;28;20044;-69
2022/03/22 07:30:16;;;;;;;44.65;38.08;;;8.30;99.90;;;;;;5078259;28;20122;-68
2022/03/22 07:32:43;;;;;;;43.65;38.25;;;8.50;99.90;;;;;;5083089;28;20438;-68
2022/03/22 07:35:10;;;;;;;45.28;37.13;;;8.60;99.90;;;;;;5080479;28;20135;-68
2022/03/22 07:37:37;;;;;;;42.97;37.40;;;8.70;99.90;;;;;;5082135;28;20534;-68
2022/03/22 07:40:09;;;;;;;45.45;36.42;;;8.90;99.90;;;;;;5082588;28;20044;-74
2022/03/22 07:42:35;;;;;;;42.05;35.63;;;9.10;99.90;;;;;;5065067;28;20121;-75
2022/03/22 07:45:04;;;;;;;41.13;35.83;;;9.20;99.90;;;;;;5081912;28;20540;-68
2022/03/22 07:47:31;;;;;;;40.65;33.33;;;9.40;99.90;;;;;;5082389;28;20048;-69
2022/03/22 07:55:46;;;;;;;38.83;31.95;;;10.10;99.90;;;;;;5032884;28;20045;-72
2022/03/22 07:58:13;;;;;;;41.20;32.25;;;10.30;99.90;;;;;;5022489;28;20503;-72
2022/03/22 08:00:41;;;;;;;38.28;30.42;;;10.50;99.90;;;;;;5031799;28;20059;-72
2022/03/22 08:03:10;;;;;;;39.35;32.60;;;10.60;99.90;;;;;;5080010;28;20054;-72
2022/03/22 08:05:37;;;;;;;41.78;32.28;;;10.80;99.90;;;;;;5063366;28;20067;-73
2022/03/22 08:08:04;;;;;;;37.10;31.33;;;10.90;99.90;;;;;;5066477;28;20135;-73
2022/03/22 08:10:31;;;;;;;37.85;30.55;;;11.00;99.90;;;;;;5079905;28;20093;-73
2022/03/22 08:12:59;;;;;;;36.63;30.25;;;11.20;99.90;;;;;;5045962;28;20043;-72
2022/03/22 08:15:28;;;;;;;40.97;31.60;;;11.40;99.90;;;;;;5060811;28;20581;-73
2022/03/22 08:17:56;;;;;;;36.70;30.27;;;11.50;99.90;;;;;;5079969;28;20391;-73
2022/03/22 08:20:27;;;;;;;38.58;30.05;;;11.70;99.90;;;;;;5064210;28;20036;-73
2022/03/22 08:23:02;;;;;;;36.15;29.85;;;11.80;99.90;;;;;;5081507;28;20047;-73
2022/03/22 08:25:37;;;;;;;40.00;30.75;;;12.10;99.90;;;;;;5080099;28;20059;-73
2022/03/22 08:28:08;;;;;;;37.85;29.58;;;12.20;99.90;;;;;;5064301;28;20048;-73
2022/03/22 08:30:36;;;;;;;38.45;27.85;;;12.40;99.90;;;;;;5081714;28;20059;-73
2022/03/22 08:33:07;;;;;;;34.38;28.95;;;12.60;99.90;;;;;;5081173;28;20497;-73
2022/03/22 08:35:34;;;;;;;34.72;28.10;;;12.60;99.30;;;;;;5079880;28;20043;-77
2022/03/22 08:38:00;;;;;;;35.83;28.48;;;12.70;98.30;;;;;;5079079;28;20560;-76
2022/03/22 08:40:26;;;;;;;36.92;28.30;;;12.80;97.10;;;;;;5063017;28;20147;-76
2022/03/22 08:42:53;;;;;;;32.03;27.25;;;12.90;95.30;;;;;;5077387;28;20086;-77
2022/03/22 08:45:22;;;;;;;35.20;26.90;;;13.00;95.20;;;;;;5060176;28;20723;-77
2022/03/22 08:47:49;;;;;;;33.33;27.67;;;13.10;95.60;;;;;;5073375;28;20067;-75
2022/03/22 08:50:19;;;;;;;34.03;28.15;;;13.20;94.80;;;;;;5060590;28;20044;-76
2022/03/22 08:52:49;;;;;;;35.08;29.30;;;13.40;94.10;;;;;;5060580;28;20151;-76
2022/03/22 08:55:17;;;;;;;38.38;28.48;;;13.40;94.10;;;;;;5077821;28;20285;-76
2022/03/22 08:57:46;;;;;;;36.08;28.67;;;13.60;93.60;;;;;;5045292;28;20051;-76
2022/03/22 09:00:13;;;;;;;34.92;28.00;;;13.70;93.20;;;;;;5044731;28;20079;-76
2022/03/22 09:02:40;;;;;;;32.97;27.92;;;13.80;93.00;;;;;;5038171;28;20044;-75
2022/03/22 09:07:56;;;;;;;35.85;27.52;;;14.00;92.50;;;;;;5069425;28;20044;-76
2022/03/22 09:10:22;;;;;;;34.95;26.88;;;14.00;92.70;;;;;;5067754;28;20054;-73
2022/03/22 09:12:48;;;;;;;36.28;28.77;;;14.20;93.10;;;;;;5055901;28;20044;-73
2022/03/22 09:15:16;;;;;;;35.15;27.35;;;14.30;92.80;;;;;;5062060;28;20083;-74
2022/03/22 09:17:42;;;;;;;35.65;27.83;;;14.40;90.30;;;;;;5072782;28;20074;-73
2022/03/22 09:20:12;;;;;;;37.80;27.00;;;14.50;90.80;;;;;;5076386;28;20140;-74
2022/03/22 09:22:38;;;;;;;33.05;26.30;;;14.60;91.30;;;;;;5089635;28;20058;-74
2022/03/22 09:25:05;;;;;;;30.48;25.88;;;14.70;91.50;;;;;;5063470;28;20047;-73
2022/03/22 09:27:30;;;;;;;33.00;26.85;;;14.80;90.60;;;;;;5041355;28;20134;-74
2022/03/22 09:29:57;;;;;;;33.30;26.70;;;15.00;89.30;;;;;;5079957;28;20107;-74
2022/03/22 09:32:23;;;;;;;35.70;26.77;;;15.10;89.80;;;;;;5061591;28;20100;-74
2022/03/22 09:34:49;;;;;;;34.15;27.20;;;15.30;88.50;;;;;;5073286;28;20674;-74
2022/03/22 09:37:16;;;;;;;33.55;26.45;;;15.40;85.90;;;;;;5028045;28;20120;-74
2022/03/22 09:39:46;;;;;;;30.52;25.77;;;15.50;86.10;;;;;;5060326;28;20173;-74
2022/03/22 09:42:12;;;;;;;30.85;25.92;;;15.70;82.80;;;;;;5112997;28;20100;-73
2022/03/22 09:44:38;;;;;;;31.25;25.55;;;15.70;81.30;;;;;;5080521;28;20036;-74
2022/03/22 09:47:04;;;;;;;32.05;25.10;;;15.90;79.00;;;;;;5078874;28;20058;-74
2022/03/22 09:49:30;;;;;;;34.47;27.13;;;15.90;79.30;;;;;;5063470;28;20152;-74
2022/03/22 09:51:57;;;;;;;33.65;25.70;;;16.00;78.50;;;;;;5062593;28;20043;-74
2022/03/22 09:54:24;;;;;;;38.10;26.92;;;16.10;76.40;;;;;;5082496;28;20404;-74
2022/03/22 09:56:52;;;;;;;34.35;27.10;;;16.20;74.60;;;;;;5078812;28;20158;-74
2022/03/22 09:59:18;;;;;;;36.10;27.13;;;16.20;74.80;;;;;;5080414;28;20048;-74
2022/03/22 10:01:45;;;;;;;30.15;25.80;;;16.30;77.70;;;;;;5079993;28;20043;-74
2022/03/22 10:04:13;;;;;;;35.95;27.27;;;16.30;76.10;;;;;;5084181;28;20047;-76
2022/03/22 10:07:02;;;;;;;33.50;26.25;;;16.40;74.80;;;;;;5067581;28;20043;-76
2022/03/22 10:09:36;;;;;;;33.75;26.48;;;16.50;76.10;;;;;;5085137;28;20400;-76
2022/03/22 10:12:04;;;;;;;33.63;25.58;;;16.60;76.30;;;;;;5085834;28;20055;-75
2022/03/22 10:14:35;;;;;;;33.95;25.67;;;16.80;75.50;;;;;;5083009;28;20048;-75
2022/03/22 10:17:09;;;;;;;29.75;24.30;;;16.80;72.80;;;;;;5085532;28;20722;-75
2022/03/22 10:19:47;;;;;;;33.42;25.17;;;16.80;72.40;;;;;;5084095;28;20517;-76
2022/03/22 10:22:14;;;;;;;33.83;26.35;;;16.90;73.30;;;;;;5079629;28;20378;-76
2022/03/22 10:24:45;;;;;;;32.40;25.25;;;17.00;73.70;;;;;;5118117;27;20040;-76
2022/03/22 10:27:26;;;;;;;32.25;25.35;;;17.20;73.10;;;;;;5084813;28;20785;-76
2022/03/22 10:29:53;;;;;;;30.23;25.20;;;17.30;71.70;;;;;;5085591;28;20050;-76
2022/03/22 10:32:37;;;;;;;32.30;24.85;;;17.40;72.80;;;;;;5081383;28;20043;-76
2022/03/22 10:35:11;;;;;;;32.08;25.35;;;17.50;69.80;;;;;;5080099;28;20267;-76
2022/03/22 10:37:38;;;;;;;32.60;25.15;;;17.60;69.60;;;;;;5046680;28;20078;-75
2022/03/22 10:40:22;;;;;;;31.38;25.42;;;17.70;69.60;;;;;;5078590;28;20036;-76
2022/03/22 10:42:53;;;;;;;31.08;26.20;;;17.80;68.90;;;;;;5077706;28;20048;-76
2022/03/22 10:45:19;;;;;;;33.70;25.55;;;17.80;69.00;;;;;;5116213;27;20035;-76
2022/03/22 10:47:45;;;;;;;29.67;24.58;;;17.90;69.00;;;;;;5067886;28;20058;-74
2022/03/22 10:50:12;;;;;;;31.13;24.73;;;18.00;68.30;;;;;;5068691;28;20048;-75
2022/03/22 10:52:48;;;;;;;28.38;22.95;;;18.10;67.70;;;;;;5066343;28;20039;-74
2022/03/22 10:55:21;;;;;;;35.33;25.25;;;18.10;64.70;;;;;;5067835;28;20072;-75
2022/03/22 10:57:53;;;;;;;30.98;24.45;;;18.10;65.50;;;;;;5081599;28;20075;-74
2022/03/22 11:00:20;;;;;;;35.50;24.90;;;18.10;64.10;;;;;;5081506;28;20438;-74
2022/03/22 11:02:49;;;;;;;31.98;25.10;;;18.10;64.00;;;;;;5082147;28;20048;-74
2022/03/22 11:05:18;;;;;;;34.35;24.50;;;18.20;65.00;;;;;;5083920;28;20502;-75
2022/03/22 11:07:46;;;;;;;32.33;25.63;;;18.20;64.90;;;;;;5083081;28;20151;-75
2022/03/22 11:10:12;;;;;;;29.48;23.98;;;18.20;63.90;;;;;;5082955;27;20051;-75
2022/03/22 11:12:38;;;;;;;33.75;24.58;;;18.20;63.70;;;;;;5084267;28;20040;-75
2022/03/22 11:15:06;;;;;;;29.48;23.35;;;18.20;62.90;;;;;;5063751;28;20058;-75
2022/03/22 11:17:35;;;;;;;32.20;25.83;;;18.20;61.30;;;;;;5118756;27;20391;-76
2022/03/22 11:20:08;;;;;;;30.27;24.60;;;18.20;62.10;;;;;;5112904;27;20051;-75
2022/03/22 11:22:34;;;;;;;32.67;26.52;;;18.20;62.70;;;;;;5077795;28;20118;-76
2022/03/22 11:25:11;;;;;;;33.42;27.48;;;18.30;63.30;;;;;;5064654;28;20123;-75
2022/03/22 11:27:38;;;;;;;32.25;25.88;;;18.40;63.60;;;;;;5079691;28;20058;-75
2022/03/22 11:30:06;;;;;;;35.10;27.10;;;18.40;62.40;;;;;;5062507;28;20108;-75
2022/03/22 11:35:24;;;;;;;31.83;24.80;;;18.40;62.90;;;;;;5068326;28;20087;-75
2022/03/22 11:38:00;;;;;;;34.30;27.80;;;18.50;63.10;;;;;;5082551;28;20048;-74
2022/03/22 11:43:15;;;;;;;32.95;26.70;;;18.60;62.20;;;;;;5075940;28;20075;-74
2022/03/22 11:45:49;;;;;;;33.28;24.98;;;18.60;62.80;;;;;;5076779;28;20039;-74
2022/03/22 11:48:16;;;;;;;32.50;25.55;;;18.80;62.40;;;;;;5077817;28;20519;-74
2022/03/22 11:50:45;;;;;;;33.00;25.52;;;18.80;61.40;;;;;;5077007;28;20955;-76
2022/03/22 11:53:20;;;;;;;32.13;24.83;;;18.90;60.40;;;;;;5058882;28;20537;-76
2022/03/22 11:55:53;;;;;;;28.95;25.23;;;18.90;60.20;;;;;;5091870;28;20422;-76
2022/03/22 11:58:26;;;;;;;33.45;25.85;;;18.90;59.90;;;;;;5093570;28;20111;-76
2022/03/22 12:01:00;;;;;;;30.52;24.70;;;19.00;60.40;;;;;;5069346;28;20393;-76
2022/03/22 12:03:35;;;;;;;30.13;24.95;;;19.10;59.50;;;;;;5045172;28;20040;-76
2022/03/22 12:06:16;;;;;;;36.15;25.10;;;19.20;59.20;;;;;;5079504;28;20312;-76
2022/03/22 12:08:43;;;;;;;35.88;25.73;;;19.30;57.60;;;;;;5074035;28;20048;-77
2022/03/22 12:11:15;;;;;;;34.25;24.27;;;19.30;57.80;;;;;;5093336;28;20576;-76
2022/03/22 12:13:50;;;;;;;33.45;23.80;;;19.30;57.60;;;;;;5074300;28;20048;-75
2022/03/22 12:16:16;;;;;;;32.75;23.00;;;19.30;57.70;;;;;;5076507;28;20047;-76
2022/03/22 12:18:42;;;;;;;32.83;24.75;;;19.40;57.30;;;;;;5062934;28;20047;-75
2022/03/22 12:21:19;;;;;;;30.67;23.63;;;19.50;56.60;;;;;;5080324;28;20055;-76
2022/03/22 12:23:46;;;;;;;31.90;24.17;;;19.50;56.30;;;;;;5061271;28;20044;-76
2022/03/22 12:26:12;;;;;;;30.70;23.42;;;19.50;55.60;;;;;;5044806;28;20067;-76
2022/03/22 12:28:52;;;;;;;31.52;23.70;;;19.50;55.30;;;;;;5060838;28;20201;-74
2022/03/22 12:31:21;;;;;;;29.50;23.20;;;19.50;54.90;;;;;;5062042;28;20569;-76
2022/03/22 12:33:51;;;;;;;31.90;24.73;;;19.50;55.50;;;;;;5044770;28;20042;-77
2022/03/22 12:36:18;;;;;;;;;;;19.50;55.50;;;;;;5080857;28;20118;-76
2022/03/22 12:38:44;;;;;;;33.53;24.17;;;19.60;55.70;;;;;;5080080;28;19969;-77
2022/03/22 12:41:10;;;;;;;28.42;23.30;;;19.70;55.60;;;;;;5063625;28;20047;-77
2022/03/22 12:43:36;;;;;;;30.00;23.63;;;19.80;55.60;;;;;;5063825;28;20039;-77
2022/03/22 12:46:02;;;;;;;34.20;23.52;;;19.90;54.40;;;;;;5046330;28;20032;-76
2022/03/22 12:48:30;;;;;;;33.55;24.33;;;19.90;55.20;;;;;;5061262;28;20052;-76
2022/03/22 12:50:56;;;;;;;32.95;23.20;;;20.00;54.10;;;;;;5080444;28;20043;-77
2022/03/22 12:53:22;;;;;;;31.88;22.70;;;20.10;54.20;;;;;;5080643;28;20262;-77
2022/03/22 12:55:48;;;;;;;30.42;22.95;;;20.20;54.00;;;;;;5062964;28;20406;-77
2022/03/22 12:58:14;;;;;;;30.15;23.17;;;20.30;53.40;;;;;;5072691;28;20075;-75
2022/03/22 13:00:41;;;;;;;32.80;24.15;;;20.30;53.10;;;;;;5079338;28;20291;-77
2022/03/22 13:03:10;;;;;;;35.00;24.10;;;20.40;51.90;;;;;;5045591;28;20771;-78
2022/03/22 13:05:47;;;;;;;29.45;22.17;;;20.30;52.00;;;;;;5079269;28;20043;-75
2022/03/22 13:08:22;;;;;;;30.33;23.50;;;20.40;52.70;;;;;;5072498;28;20249;-74
2022/03/22 13:16:24;;;;;;;29.42;22.70;;;20.60;52.80;;;;;;5059268;28;20080;-75
2022/03/22 13:18:52;;;;;;;31.42;22.02;;;20.60;51.90;;;;;;5076842;28;20081;-76
2022/03/22 13:21:26;;;;;;;26.73;20.50;;;20.60;51.80;;;;;;5056915;28;20050;-76
2022/03/22 13:24:17;;;;;;;26.88;19.00;;;20.70;51.50;;;;;;5059002;28;20474;-76